• Join FlightAware (Why Join?)
  • Login
  • US Flag 
08:03PM EST


 

Airport Tracker/Info


-or-


 

Live Flight TrackerFlight Track Log ✈ EJA922 ✈ 10-Jul-2014 ✈ KMRY - KPHF

Flight Track Log - Related Links

Times and Time Zones

All times are in EDT time to prevent confusion due to time zone crossing. See the EJA922 flight status page for this flight to view local times or setup timezone preferences in your user account.

Time Position Orientation Groundspeed Altitude Reporting Facility
EDT Latitude Longitude Course Direction KTS MPH feet Rate Location/Type
11:15AM 36.6000 -121.8833 90° East 204 235 1,900  Level Northern Cal TRACON
11:16AM 36.6500 -121.9167 332° Northwest 244 281 4,000 2,040 Climbing Northern Cal TRACON
11:17AM 36.6833 -121.8333 63° Northeast 261 300 5,900 2,040 Climbing Northern Cal TRACON
11:19AM 36.7000 -121.6333 84° East 280 322 10,200 1,920 Climbing Northern Cal TRACON
11:20AM 36.7000 -121.5333 90° East 313 360 11,800 1,560 Climbing Northern Cal TRACON
11:21AM 36.7000 -120.8434 90° East  Level FlightAware Approximate
11:21AM 36.6981 -121.3733 91° East 322 371 14,000  Level Oakland Center
11:22AM 36.7025 -121.2450 87° East 351 404 15,600 1,440 Climbing Oakland Center
11:23AM 36.7061 -121.1147 88° East 364 419 17,000 1,260 Climbing Oakland Center
11:24AM 36.7094 -120.9831 88° East 373 429 18,300 1,320 Climbing Oakland Center
11:25AM 36.7131 -120.8475 88° East 385 443 19,800 1,320 Climbing Oakland Center
11:27AM 36.7428 -120.7153 74° East 403 464 21,100 1,080 Climbing Oakland Center
11:28AM 36.7964 -120.5967 61° Northeast 394 453 22,100 1,020 Climbing Oakland Center
11:30AM 36.9222 -120.3169 61° Northeast 418 481 24,400 1,020 Climbing Oakland Center
11:31AM 36.9403 -120.1742 81° East 426 490 25,400 900 Climbing Oakland Center
11:32AM 36.9417 -120.0208 89° East 436 502 26,300 960 Climbing Oakland Center
11:33AM 36.9400 -119.8656 91° East 443 510 27,400 1,080 Climbing Oakland Center
11:34AM 36.9411 -119.7083 89° East 449 517 28,600 1,260 Climbing Oakland Center
11:35AM 36.9689 -119.5589 77° East 444 511 30,000 1,200 Climbing Oakland Center
11:36AM 37.0425 -119.4322 54° Northeast 450 518 31,100 1,020 Climbing Oakland Center
11:37AM 37.1450 -119.3422 35° Northeast 454 522 32,200 1,080 Climbing Oakland Center
11:38AM 37.2847 -119.2608 25° Northeast 459 528 33,400 1,080 Climbing Oakland Center
11:39AM 37.3661 -119.1383 50° Northeast 460 529 34,500 960 Climbing Oakland Center
11:40AM 37.4322 -118.9986 59° Northeast 462 532 35,400 840 Climbing Oakland Center
11:41AM 37.5000 -118.8561 59° Northeast 470 541 36,300 840 Climbing Oakland Center
11:42AM 37.5667 -118.7156 59° Northeast 476 548 37,200 1,020 Climbing Oakland Center
11:43AM 37.6350 -118.5700 59° Northeast 479 551 38,400 840 Climbing Oakland Center
11:44AM 37.7008 -118.4258 60° Northeast 478 550 39,000 240 Climbing Oakland Center
11:45AM 37.7850 -118.2458 59° Northeast 490 564 39,000  Level Oakland Center
11:46AM 37.8567 -118.0922 59° Northeast 501 577 39,000  Level Oakland Center
11:47AM 37.9278 -117.9406 59° Northeast 504 580 39,100 540 Climbing Oakland Center
11:48AM 37.9939 -117.7892 61° Northeast 495 570 40,200 900 Climbing Oakland Center
11:49AM 38.0169 -117.6267 80° East 477 549 41,000 360 Climbing Oakland Center
11:50AM 38.0303 -117.4592 84° East 477 549 41,000  Level Oakland Center
11:51AM 38.0419 -117.2897 85° East 484 557 41,000  Level Oakland Center
11:52AM 38.0592 -117.0867 84° East 499 574 41,000  Level Oakland Center
11:53AM 38.0739 -116.9217 83° East 485 558 41,000  Level Oakland Center
11:54AM 38.0875 -116.7544 84° East 481 554 41,000  Level Salt Lake Center
11:55AM 38.1006 -116.5858 84° East 481 554 41,000  Level Salt Lake Center
11:56AM 38.1133 -116.4214 84° East 476 548 41,000  Level Salt Lake Center
11:57AM 38.1261 -116.2556 84° East 474 545 41,000  Level Salt Lake Center
11:58AM 38.1406 -116.0572 85° East 472 543 41,000  Level Salt Lake Center
11:59AM 38.1525 -115.8903 85° East 473 544 41,000  Level Salt Lake Center
12:00PM 38.1636 -115.7181 85° East 484 557 41,000  Level Salt Lake Center
12:01PM 38.1750 -115.5503 85° East 484 557 41,000  Level Salt Lake Center
12:02PM 38.1864 -115.3831 85° East 477 549 41,000  Level Salt Lake Center
12:03PM 38.2003 -115.2083 84° East 487 560 41,000  Level Salt Lake Center
12:04PM 38.2106 -115.0356 86° East 488 562 41,000  Level Salt Lake Center
12:06PM 38.2219 -114.8311 86° East 487 560 41,000  Level Salt Lake Center
12:07PM 38.2331 -114.6675 85° East 475 547 41,000  Level Salt Lake Center
12:08PM 38.2411 -114.5039 86° East 468 539 41,000  Level Salt Lake Center
12:09PM 38.2519 -114.3353 85° East 470 541 41,000  Level Salt Lake Center
12:10PM 38.2697 -114.1678 82° East 473 544 41,000  Level Salt Lake Center
12:11PM 38.2828 -114.0036 84° East 473 544 41,000 300 Level Salt Lake Center
12:13PM 38.3117 -113.6439 84° East 468 539 42,100 600 Climbing Salt Lake Center
12:14PM 38.3244 -113.4819 84° East 465 535 42,900 420 Climbing Salt Lake Center
12:15PM 38.3367 -113.3197 84° East 463 533 43,000  Climbing Salt Lake Center
12:16PM 38.3500 -113.1544 84° East 463 533 43,000  Level Salt Lake Center
12:17PM 38.3644 -112.9867 84° East 468 539 43,000  Level Salt Lake Center
12:18PM 38.3956 -112.8225 76° East 478 550 43,000  Level Salt Lake Center
12:19PM 38.4308 -112.6275 77° East 471 542 43,000  Level Salt Lake Center
12:20PM 38.4606 -112.4622 77° East 472 543 43,000  Level Salt Lake Center
12:21PM 38.4908 -112.2956 77° East 482 555 43,000  Level Salt Lake Center
12:23PM 38.5489 -111.9656 77° East 477 549 43,000  Level Salt Lake Center
12:24PM 38.5778 -111.7981 78° East 478 550 43,000  Level Salt Lake Center
12:26PM 38.6419 -111.4267 77° East 487 560 43,000  Level Denver Center
12:27PM 38.6700 -111.2603 78° East 486 559 43,000  Level Denver Center
12:28PM 38.6981 -111.0906 78° East 484 557 43,000  Level Salt Lake Center
12:30PM 38.7547 -110.7531 78° East 485 558 43,000  Level Salt Lake Center
12:31PM 38.7881 -110.5486 78° East 487 560 43,000  Level Salt Lake Center
12:32PM 38.8156 -110.3783 78° East 487 560 43,000  Level Salt Lake Center
12:33PM 38.8425 -110.2100 78° East 484 557 43,000  Level Salt Lake Center
12:36PM 38.8953 -109.8708 79° East 485 558 43,000  Level Salt Lake Center
12:37PM 38.9222 -109.6989 79° East 490 564 43,000  Level Salt Lake Center
12:38PM 38.9544 -109.4928 79° East 491 565 43,000  Level Salt Lake Center
12:39PM 38.9806 -109.3192 79° East 491 565 43,000  Level Denver Center
12:40PM 39.0078 -109.1369 79° East 487 560 43,000  Level Denver Center
12:41PM 39.0328 -108.9664 79° East 487 560 43,000  Level Denver Center
12:42PM 39.0622 -108.7825 78° East 487 560 43,000  Level Denver Center
12:43PM 39.0969 -108.6161 75° East 480 552 43,000  Level Denver Center
12:44PM 39.1269 -108.4614 76° East 490 564 43,000  Level Denver Center
12:45PM 39.1700 -108.2592 75° East 493 567 43,000  Level Denver Center
12:46PM 39.2039 -108.0911 75° East 484 557 43,000  Level Denver Center
12:47PM 39.2381 -107.9239 75° East 483 556 43,000  Level Denver Center
12:48PM 39.2711 -107.7544 76° East 482 555 43,000  Level Denver Center
12:50PM 39.3386 -107.4147 78° East 488 562 43,000  Level Denver Center
12:51PM 39.3725 -107.2400 76° East 498 573 43,000  Level Denver Center
12:52PM 39.4050 -107.0717 76° East 490 564 43,000  Level Denver Center
12:53PM 39.4400 -106.8572 78° East 491 565 43,000  Level Denver Center
12:54PM 39.4639 -106.6847 80° East 494 568 43,000  Level Denver Center
12:55PM 39.4847 -106.5100 81° East 495 570 43,000  Level Denver Center
12:56PM 39.5078 -106.3169 81° East 491 565 43,000  Level Denver Center
12:57PM 39.5269 -106.1550 81° East 489 563 43,000  Level Denver Center
12:58PM 39.5450 -105.9800 82° East 490 564 43,000  Level Denver Center
12:59PM 39.5700 -105.7706 81° East 490 564 43,000  Level Denver Center
01:00PM 39.5883 -105.5944 82° East 494 568 43,000  Level Denver Center
01:01PM 39.6072 -105.4194 82° East 492 566 43,000  Level Denver Center
01:02PM 39.6183 -105.2447 85° East 489 563 43,000  Level Denver Center
01:03PM 39.6083 -105.0664 94° East 493 567 43,000  Level Denver Center
01:06PM 39.5867 -104.6939 94° East 490 564 43,000  Level Denver Center
01:07PM 39.5789 -104.5100 93° East 502 578 43,000  Level Denver Center
01:08PM 39.5697 -104.3378 94° East 493 567 43,000  Level Denver Center
01:09PM 39.5569 -104.1278 94° East 491 565 43,000  Level Denver Center
01:10PM 39.5467 -103.9528 94° East 490 564 43,000  Level Denver Center
01:11PM 39.5361 -103.7775 94° East 489 563 43,000  Level Denver Center
01:12PM 39.5242 -103.6017 95° East 490 564 43,000  Level Denver Center
01:13PM 39.5131 -103.4264 95° East 490 564 43,000  Level Denver Center
01:14PM 39.5019 -103.2508 95° East 490 564 43,000  Level Denver Center
01:15PM 39.4875 -103.0386 95° East 492 566 43,000  Level Denver Center
01:16PM 39.4750 -102.8625 95° East 492 566 43,000  Level Denver Center
01:18PM 39.4469 -102.4892 95° East 493 567 43,000  Level Kansas City Center
01:19PM 39.4358 -102.3089 95° East 492 566 43,000  Level Denver Center
01:20PM 39.4217 -102.1375 96° East 494 568 43,000  Level Denver Center
01:21PM 39.4058 -101.9372 96° East 503 579 43,000  Level Denver Center
01:22PM 39.3933 -101.7647 95° East 503 579 43,000  Level Denver Center
01:23PM 39.3761 -101.5625 96° East 508 585 43,000  Level Denver Center
01:24PM 39.3622 -101.3886 96° East 509 586 43,000  Level Denver Center
01:25PM 39.3450 -101.1842 96° East 512 589 43,000  Level Denver Center
01:26PM 39.3292 -101.0081 97° East 514 592 43,000  Level Denver Center
01:27PM 39.3108 -100.8044 97° East 514 592 43,000  Level Denver Center
01:28PM 39.2956 -100.6311 96° East 514 592 43,000  Level Denver Center
01:29PM 39.2800 -100.4594 97° East 508 585 43,000  Level Denver Center
01:30PM 39.2614 -100.2617 97° East 504 580 43,000  Level Denver Center
01:31PM 39.2619 -100.0908 90° East 502 578 43,000  Level Denver Center
01:32PM 39.2672 -99.8925 88° East 500 575 43,000  Level Denver Center
01:35PM 39.2761 -99.5228 88° East 499 574 43,000  Level Denver Center
01:36PM 39.2789 -99.3486 89° East 500 575 43,000  Level Denver Center
01:37PM 39.2828 -99.1472 89° East 502 578 43,000  Level Denver Center
01:38PM 39.2872 -98.9508 88° East 504 580 43,000  Level Denver Center
01:39PM 39.2903 -98.7711 89° East 504 580 43,000  Level Denver Center
01:40PM 39.2931 -98.5914 89° East 503 579 43,000  Level Denver Center
01:41PM 39.2967 -98.3736 89° East 509 586 43,000  Level Kansas City Center
01:42PM 39.2969 -98.1981 90° East 505 581 43,000  Level Kansas City Center
01:43PM 39.2994 -98.0194 89° East 500 575 43,000  Level Kansas City Center
01:44PM 39.3008 -97.8319 89° East 509 586 43,000  Level Kansas City Center
01:46PM 39.3053 -97.4356 89° East 504 580 43,000  Level Kansas City Center
01:47PM 39.3053 -97.2531 90° East 504 580 43,000  Level Kansas City Center
01:48PM 39.3067 -97.0683 89° East 510 587 43,000  Level Kansas City Center
01:49PM 39.3064 -96.8839 90° East 511 588 43,000  Level Kansas City Center
01:50PM 39.3078 -96.6981 89° East 513 590 43,000  Level Kansas City Center
01:51PM 39.3064 -96.5139 91° East 514 592 43,000  Level Kansas City Center
01:52PM 39.3050 -96.3206 90° East 514 592 43,000  Level Kansas City Center
01:53PM 39.3025 -96.1061 91° East 522 601 43,000  Level Kansas City Center
01:54PM 39.3008 -95.9197 91° East 522 601 43,000  Level Kansas City Center
01:56PM 39.2978 -95.5472 91° East 519 597 43,000  Level Kansas City Center
01:57PM 39.2936 -95.3364 91° East 527 606 43,000  Level Kansas City Center
02:01PM 39.2850 -94.7806 95° East 522 601 43,000  Level Kansas City Center
02:02PM 39.2706 -94.5528 95° East 532 612 43,000  Level Kansas City Center
02:04PM 39.2383 -94.1803 96° East 524 603 43,000  Level Kansas City Center
02:05PM 39.2222 -93.9939 96° East 524 603 43,000  Level Kansas City Center
02:06PM 39.2115 -93.9588 95° East  Level FlightAware Approximate
02:06PM 39.2053 -93.8081 97° East 524 603 43,000  Level Kansas City Center
02:07PM 39.1878 -93.6208 97° East 524 603 43,000  Level Kansas City Center
02:08PM 39.1708 -93.4078 96° East 526 605 43,000  Level Kansas City Center
02:09PM 39.1531 -93.2222 97° East 526 605 43,000  Level Kansas City Center
02:10PM 39.1344 -93.0342 97° East 531 611 43,000  Level Kansas City Center
02:11PM 39.1128 -92.8119 97° East 531 611 43,000  Level Kansas City Center
02:12PM 39.0950 -92.6350 97° East 530 610 43,000  Level Kansas City Center
02:13PM 39.0750 -92.4464 98° East 530 610 43,000  Level Kansas City Center
02:14PM 39.0556 -92.2575 97° East 530 610 43,000  Level Kansas City Center
02:15PM 39.0325 -92.0303 97° East 530 610 43,000  Level Kansas City Center
02:16PM 39.0119 -91.8386 98° East 531 611 43,000  Level Kansas City Center
02:18PM 38.9717 -91.4581 98° East 533 613 43,000  Level Kansas City Center
02:19PM 38.9517 -91.2708 98° East 533 613 43,000  Level Kansas City Center
02:20PM 38.9292 -91.0819 99° East 533 613 43,000  Level Kansas City Center
02:21PM 38.9081 -90.8917 98° East 533 613 43,000  Level Kansas City Center
02:22PM 38.8867 -90.7014 98° East 534 615 43,000  Level Kansas City Center
02:23PM 38.8614 -90.4911 99° East 534 615 43,000  Level Kansas City Center
02:24PM 38.8364 -90.3069 100° East 534 615 43,000  Level Kansas City Center
02:25PM 38.8050 -90.0772 100° East 542 624 43,000  Level Kansas City Center
02:26PM 38.7800 -89.8894 100° East 545 627 43,000  Level Kansas City Center
02:28PM 38.7294 -89.5308 100° East 545 627 43,000  Level Indianapolis Center
02:29PM 38.7050 -89.3392 99° East 545 627 43,000  Level Indianapolis Center
02:30PM 38.6767 -89.1486 101° East 545 627 43,000  Level Indianapolis Center
02:31PM 38.6494 -88.9572 100° East 545 627 43,000  Level Indianapolis Center
02:32PM 38.6197 -88.7683 101° East 545 627 43,000  Level Indianapolis Center
02:33PM 38.5917 -88.5767 101° East 545 627 43,000  Level Indianapolis Center
02:34PM 38.5628 -88.3833 101° East 548 631 43,000  Level Indianapolis Center
02:35PM 38.5289 -88.1539 101° East 549 632 43,000  Level Indianapolis Center
02:36PM 38.4994 -87.9619 101° East 549 632 43,000  Level Indianapolis Center
02:37PM 38.4692 -87.7717 101° East 548 631 43,000  Level Indianapolis Center
02:39PM 38.4475 -87.5808 98° East 544 626 43,000  Level Indianapolis Center
02:41PM 38.4503 -87.1925 89° East 543 625 43,000  Level Indianapolis Center
02:42PM 38.4503 -86.9772 90° East 543 625 43,000  Level Indianapolis Center
02:43PM 38.4519 -86.7936 89° East 544 626 43,000  Level Indianapolis Center
02:44PM 38.4511 -86.5997 90° East 544 626 43,000  Level Indianapolis Center
02:45PM 38.4503 -86.4053 90° East 544 626 43,000  Level Indianapolis Center
02:46PM 38.4500 -86.1728 90° East 545 627 43,000  Level Indianapolis Center
02:48PM 38.4483 -85.7894 90° East 540 621 43,000  Level Indianapolis Center
02:49PM 38.4472 -85.5978 90° East 541 623 43,000  Level Indianapolis Center
02:50PM 38.4447 -85.4072 91° East 540 621 43,000  Level Indianapolis Center
02:52PM 38.4400 -84.9856 91° East 540 621 43,000  Level Indianapolis Center
02:53PM 38.4372 -84.7933 91° East 541 623 43,000 -420 Level Indianapolis Center
02:55PM 38.4310 -84.5342 92° East  Level FlightAware Approximate
02:56PM 38.4261 -84.2086 92° East 548 631 41,400  Level Indianapolis Center
02:57PM 38.4214 -84.0169 92° East 544 626 39,500 -1,920 Descending Indianapolis Center
02:58PM 38.4150 -83.7872 92° East 550 633 37,500 -1,260 Descending Indianapolis Center
02:59PM 38.4108 -83.5833 91° East 562 647 37,000 -540 Descending Indianapolis Center
03:00PM 38.4050 -83.3792 92° East 569 655 36,400 -780 Descending Indianapolis Center
03:01PM 38.3994 -83.1761 92° East 570 656 35,400 -720 Descending Indianapolis Center
03:02PM 38.3931 -82.9686 92° East 574 661 35,000 -660 Descending Indianapolis Center
03:03PM 38.3858 -82.7625 92° East 576 663 34,100 -1,200 Descending Indianapolis Center
03:04PM 38.3778 -82.5278 92° East 572 658 32,600 -1,080 Descending Indianapolis Center
03:05PM 38.3714 -82.3450 92° East 574 661 31,900 -1,140 Descending Indianapolis Center
03:07PM 38.3547 -81.8983 95° East 577 664 29,100 -1,500 Descending Indianapolis Center
03:08PM 38.3397 -81.7028 96° East 566 651 27,400 -1,680 Descending Indianapolis Center
03:10PM 38.3086 -81.5117 102° East 562 647 25,700 -900 Descending Indianapolis Center
03:11PM 38.2567 -81.2031 102° East 545 627 25,000 -300 Descending Washington Center
03:12PM 38.2275 -81.0211 101° East 526 605 25,000  Level Washington Center
03:13PM 38.2000 -80.8475 101° East 515 593 25,000  Level Washington Center
03:15PM 38.1419 -80.4922 102° East 514 592 25,000  Level Washington Center
03:16PM 38.1117 -80.3133 102° East 514 592 25,000  Level Washington Center
03:17PM 38.0831 -80.1347 101° East 514 592 25,000  Level Washington Center
03:18PM 38.0503 -79.9533 103° East 514 592 25,000  Level Washington Center
03:19PM 38.0211 -79.7778 102° East 514 592 25,000  Level Washington Center
03:20PM 37.9917 -79.5969 102° East 514 592 25,000  Level Washington Center
03:21PM 37.9578 -79.4186 103° East 519 597 25,000  Level Washington Center
03:22PM 37.9261 -79.2378 102° East 519 597 25,000  Level Washington Center
03:23PM 37.8917 -79.0625 104° East 513 590 25,000  Level Washington Center
03:24PM 37.8422 -78.8919 110° East 518 596 25,000  Level Washington Center
03:25PM 37.7944 -78.7269 110° East 513 590 25,000  Level Washington Center
03:26PM 37.7467 -78.5594 110° East 513 590 25,000 -1,020 Level Washington Center
03:27PM 37.6964 -78.3922 111° Southeast 513 590 23,100 -2,040 Descending Washington Center
03:28PM 37.6500 -78.2306 110° East 508 585 21,000 -1,080 Descending Washington Center
03:29PM 37.6156 -78.0797 106° East 501 577 21,000 -840 Level Washington Center
03:30PM 37.5903 -77.8850 99° East 476 548 19,400 -1,680 Descending Washington Center
03:31PM 37.5706 -77.7194 98° East 476 548 17,700 -1,740 Descending Washington Center
03:32PM 37.5522 -77.5592 98° East 464 534 16,000 -1,620 Descending Washington Center
03:33PM 37.5339 -77.4067 99° East 464 534 14,500 -1,620 Descending Washington Center
03:34PM 37.5169 -77.2806 100° East 439 505 13,200 -1,560 Descending Washington Center
03:34PM 37.5153 -77.2517 94° East 452 520 13,000 -180 Descending Washington Center
03:35PM 37.4942 -77.1022 100° East 442 509 13,000 -120 Level Washington Center
03:35PM 37.4947 -77.0733 89° East 440 506 12,900 -420 Descending Washington Center
03:36PM 37.4792 -76.9736 101° East 424 488 12,600 -540 Descending Washington Center
03:36PM 37.4733 -76.9264 99° East 405 466 12,400 -840 Descending Washington Center
03:37PM 37.4578 -76.8214 101° East 404 465 11,800 -840 Descending Washington Center
03:37PM 37.4561 -76.7925 94° East 394 453 11,600 -900 Descending Washington Center
03:38PM 37.4297 -76.7139 113° Southeast 392 451 10,900 -1,200 Descending Washington Center
03:38PM 37.4175 -76.6847 118° Southeast 314 361 10,400 -1,800 Descending Washington Center
03:39PM 37.3889 -76.6192 119° Southeast 327 376 9,100 -2,220 Descending Washington Center
03:39PM 37.3744 -76.5875 120° Southeast 295 339 8,200 -2,040 Descending Washington Center
03:40PM 37.3519 -76.5272 115° Southeast 313 360 7,100 -1,860 Descending Washington Center
03:40PM 37.3397 -76.5036 123° Southeast 292 336 6,500 -1,920 Descending Washington Center
03:41PM 37.3131 -76.4431 119° Southeast 290 334 5,200 -2,100 Descending Washington Center
03:42PM 37.2739 -76.3539 119° Southeast 266 306 2,700 -1,680 Descending Washington Center
03:43PM 37.2367 -76.3014 132° Southeast 256 295 1,900 -420 Descending Washington Center
03:44PM 37.1967 -76.3636 231° Southwest 198 228 1,900 -300 Level Washington Center
03:45PM 37.1714 -76.4103 236° Southwest 148 170 1,300 -720 Descending Washington Center
03:46PM 37.1481 -76.4569 238° Southwest 145 167 500 -840 Descending Washington Center